sensor_id;sensor_type;location;lat;lon;timestamp;temperature;humidity
33492;DHT22;20010;51.488;7.232;2022-08-21T00:00:57;18.10;99.90
33492;DHT22;20010;51.488;7.232;2022-08-21T00:03:26;18.10;99.90
33492;DHT22;20010;51.488;7.232;2022-08-21T00:06:09;18.00;99.90
33492;DHT22;20010;51.488;7.232;2022-08-21T00:08:41;17.90;99.90
33492;DHT22;20010;51.488;7.232;2022-08-21T00:11:15;17.90;99.90
33492;DHT22;20010;51.488;7.232;2022-08-21T00:13:44;17.90;99.90
33492;DHT22;20010;51.488;7.232;2022-08-21T00:16:12;17.80;99.90
33492;DHT22;20010;51.488;7.232;2022-08-21T00:18:50;17.80;99.90
33492;DHT22;20010;51.488;7.232;2022-08-21T00:21:18;17.80;99.90
33492;DHT22;20010;51.488;7.232;2022-08-21T00:23:46;17.80;99.90
33492;DHT22;20010;51.488;7.232;2022-08-21T00:26:29;17.80;99.90
33492;DHT22;20010;51.488;7.232;2022-08-21T00:28:56;17.70;99.90
33492;DHT22;20010;51.488;7.232;2022-08-21T00:31:28;17.70;99.90
33492;DHT22;20010;51.488;7.232;2022-08-21T00:34:00;17.60;99.90
33492;DHT22;20010;51.488;7.232;2022-08-21T00:36:39;17.60;99.90
33492;DHT22;20010;51.488;7.232;2022-08-21T00:39:09;17.50;99.90
33492;DHT22;20010;51.488;7.232;2022-08-21T00:41:38;17.50;99.90
33492;DHT22;20010;51.488;7.232;2022-08-21T00:44:10;17.50;99.90
33492;DHT22;20010;51.488;7.232;2022-08-21T00:46:42;17.50;99.90
33492;DHT22;20010;51.488;7.232;2022-08-21T00:49:15;17.40;99.90
33492;DHT22;20010;51.488;7.232;2022-08-21T00:51:53;17.40;99.90
33492;DHT22;20010;51.488;7.232;2022-08-21T00:54:35;17.40;99.90
33492;DHT22;20010;51.488;7.232;2022-08-21T00:57:17;17.30;99.90
33492;DHT22;20010;51.488;7.232;2022-08-21T00:59:54;17.30;99.90
33492;DHT22;20010;51.488;7.232;2022-08-21T01:02:23;17.40;99.90
33492;DHT22;20010;51.488;7.232;2022-08-21T01:04:53;17.30;99.90
33492;DHT22;20010;51.488;7.232;2022-08-21T01:07:22;17.30;99.90
33492;DHT22;20010;51.488;7.232;2022-08-21T01:09:53;17.30;99.90
33492;DHT22;20010;51.488;7.232;2022-08-21T01:12:21;17.30;99.90
33492;DHT22;20010;51.488;7.232;2022-08-21T01:14:49;17.30;99.90
33492;DHT22;20010;51.488;7.232;2022-08-21T01:17:17;17.30;99.90
33492;DHT22;20010;51.488;7.232;2022-08-21T01:19:46;17.30;99.90
33492;DHT22;20010;51.488;7.232;2022-08-21T01:22:14;17.30;99.90
33492;DHT22;20010;51.488;7.232;2022-08-21T01:24:44;17.30;99.90
33492;DHT22;20010;51.488;7.232;2022-08-21T01:27:12;17.20;99.90
33492;DHT22;20010;51.488;7.232;2022-08-21T01:29:44;17.30;99.90
33492;DHT22;20010;51.488;7.232;2022-08-21T01:32:16;17.30;99.90
33492;DHT22;20010;51.488;7.232;2022-08-21T01:34:47;17.20;99.90
33492;DHT22;20010;51.488;7.232;2022-08-21T01:37:22;17.20;99.90
33492;DHT22;20010;51.488;7.232;2022-08-21T01:40:07;17.20;99.90
33492;DHT22;20010;51.488;7.232;2022-08-21T01:42:38;17.10;99.90
33492;DHT22;20010;51.488;7.232;2022-08-21T01:45:09;17.20;99.90
33492;DHT22;20010;51.488;7.232;2022-08-21T01:47:41;17.10;99.90
33492;DHT22;20010;51.488;7.232;2022-08-21T01:50:24;17.10;99.90
33492;DHT22;20010;51.488;7.232;2022-08-21T01:52:53;17.10;99.90
33492;DHT22;20010;51.488;7.232;2022-08-21T01:55:23;17.00;99.90
33492;DHT22;20010;51.488;7.232;2022-08-21T01:57:54;17.00;99.90
33492;DHT22;20010;51.488;7.232;2022-08-21T02:00:24;17.00;99.90
33492;DHT22;20010;51.488;7.232;2022-08-21T02:02:54;16.90;99.90
33492;DHT22;20010;51.488;7.232;2022-08-21T02:05:23;16.80;99.90
33492;DHT22;20010;51.488;7.232;2022-08-21T02:07:53;16.80;99.90
33492;DHT22;20010;51.488;7.232;2022-08-21T02:10:26;16.80;99.90
33492;DHT22;20010;51.488;7.232;2022-08-21T02:12:57;16.70;99.90
33492;DHT22;20010;51.488;7.232;2022-08-21T02:15:30;16.70;99.90
33492;DHT22;20010;51.488;7.232;2022-08-21T02:18:09;16.70;99.90
33492;DHT22;20010;51.488;7.232;2022-08-21T02:20:42;16.60;99.90
33492;DHT22;20010;51.488;7.232;2022-08-21T02:23:12;16.60;99.90
33492;DHT22;20010;51.488;7.232;2022-08-21T02:25:46;16.60;99.90
33492;DHT22;20010;51.488;7.232;2022-08-21T02:28:18;16.60;99.90
33492;DHT22;20010;51.488;7.232;2022-08-21T02:30:47;16.50;99.90
33492;DHT22;20010;51.488;7.232;2022-08-21T02:33:17;16.50;99.90
33492;DHT22;20010;51.488;7.232;2022-08-21T02:35:47;16.50;99.90
33492;DHT22;20010;51.488;7.232;2022-08-21T02:38:18;16.50;99.90
33492;DHT22;20010;51.488;7.232;2022-08-21T02:40:50;16.40;99.90
33492;DHT22;20010;51.488;7.232;2022-08-21T02:43:19;16.40;99.90
33492;DHT22;20010;51.488;7.232;2022-08-21T02:45:49;16.40;99.90
33492;DHT22;20010;51.488;7.232;2022-08-21T02:48:23;16.30;99.90
33492;DHT22;20010;51.488;7.232;2022-08-21T02:51:10;16.40;99.90
33492;DHT22;20010;51.488;7.232;2022-08-21T02:53:42;16.30;99.90
33492;DHT22;20010;51.488;7.232;2022-08-21T02:56:14;16.30;99.90
33492;DHT22;20010;51.488;7.232;2022-08-21T02:58:48;16.30;99.90
33492;DHT22;20010;51.488;7.232;2022-08-21T03:01:20;16.30;99.90
33492;DHT22;20010;51.488;7.232;2022-08-21T03:03:53;16.30;99.90
33492;DHT22;20010;51.488;7.232;2022-08-21T03:06:24;16.20;99.90
33492;DHT22;20010;51.488;7.232;2022-08-21T03:08:54;16.20;99.90
33492;DHT22;20010;51.488;7.232;2022-08-21T03:11:23;16.20;99.90
33492;DHT22;20010;51.488;7.232;2022-08-21T03:13:55;16.20;99.90
33492;DHT22;20010;51.488;7.232;2022-08-21T03:16:25;16.10;99.90
33492;DHT22;20010;51.488;7.232;2022-08-21T03:18:55;16.10;99.90
33492;DHT22;20010;51.488;7.232;2022-08-21T03:21:22;16.10;99.90
33492;DHT22;20010;51.488;7.232;2022-08-21T03:23:55;16.20;99.90
33492;DHT22;20010;51.488;7.232;2022-08-21T03:26:47;16.10;99.90
33492;DHT22;20010;51.488;7.232;2022-08-21T03:29:15;16.10;99.90
33492;DHT22;20010;51.488;7.232;2022-08-21T03:31:45;16.10;99.90
33492;DHT22;20010;51.488;7.232;2022-08-21T03:34:29;16.10;99.90
33492;DHT22;20010;51.488;7.232;2022-08-21T03:37:02;16.10;99.90
33492;DHT22;20010;51.488;7.232;2022-08-21T03:39:30;16.10;99.90
33492;DHT22;20010;51.488;7.232;2022-08-21T03:42:04;16.10;99.90
33492;DHT22;20010;51.488;7.232;2022-08-21T03:44:32;16.10;99.90
33492;DHT22;20010;51.488;7.232;2022-08-21T03:47:02;16.10;99.90
33492;DHT22;20010;51.488;7.232;2022-08-21T03:49:30;16.00;99.90
33492;DHT22;20010;51.488;7.232;2022-08-21T03:52:00;16.10;99.90
33492;DHT22;20010;51.488;7.232;2022-08-21T03:54:28;16.10;99.90
33492;DHT22;20010;51.488;7.232;2022-08-21T03:56:55;16.10;99.90
33492;DHT22;20010;51.488;7.232;2022-08-21T03:59:31;16.10;99.90
33492;DHT22;20010;51.488;7.232;2022-08-21T04:02:01;16.10;99.90
33492;DHT22;20010;51.488;7.232;2022-08-21T04:04:32;16.10;99.90
33492;DHT22;20010;51.488;7.232;2022-08-21T04:07:03;16.00;99.90
33492;DHT22;20010;51.488;7.232;2022-08-21T04:09:33;16.00;99.90
33492;DHT22;20010;51.488;7.232;2022-08-21T04:12:04;16.00;99.90
33492;DHT22;20010;51.488;7.232;2022-08-21T04:14:33;16.00;99.90
33492;DHT22;20010;51.488;7.232;2022-08-21T04:17:03;16.00;99.90
33492;DHT22;20010;51.488;7.232;2022-08-21T04:19:30;15.90;99.90
33492;DHT22;20010;51.488;7.232;2022-08-21T04:22:00;15.90;99.90
33492;DHT22;20010;51.488;7.232;2022-08-21T04:24:28;15.90;99.90
33492;DHT22;20010;51.488;7.232;2022-08-21T04:26:59;15.90;99.90
33492;DHT22;20010;51.488;7.232;2022-08-21T04:29:29;15.80;99.90
33492;DHT22;20010;51.488;7.232;2022-08-21T04:31:56;15.80;99.90
33492;DHT22;20010;51.488;7.232;2022-08-21T04:34:28;15.80;99.90
33492;DHT22;20010;51.488;7.232;2022-08-21T04:36:55;15.80;99.90
33492;DHT22;20010;51.488;7.232;2022-08-21T04:39:25;15.70;99.90
33492;DHT22;20010;51.488;7.232;2022-08-21T04:41:55;15.80;99.90
33492;DHT22;20010;51.488;7.232;2022-08-21T04:44:32;15.70;99.90
33492;DHT22;20010;51.488;7.232;2022-08-21T04:47:02;15.60;99.90
33492;DHT22;20010;51.488;7.232;2022-08-21T04:49:38;15.60;99.90
33492;DHT22;20010;51.488;7.232;2022-08-21T04:52:15;15.60;99.90
33492;DHT22;20010;51.488;7.232;2022-08-21T04:54:49;15.60;99.90
33492;DHT22;20010;51.488;7.232;2022-08-21T04:57:25;15.50;99.90
33492;DHT22;20010;51.488;7.232;2022-08-21T05:00:19;15.60;99.90
33492;DHT22;20010;51.488;7.232;2022-08-21T05:02:59;15.60;99.90
33492;DHT22;20010;51.488;7.232;2022-08-21T05:05:31;15.60;99.90
33492;DHT22;20010;51.488;7.232;2022-08-21T05:08:07;15.60;99.90
33492;DHT22;20010;51.488;7.232;2022-08-21T05:10:36;15.60;99.90
33492;DHT22;20010;51.488;7.232;2022-08-21T05:13:06;15.60;99.90
33492;DHT22;20010;51.488;7.232;2022-08-21T05:15:36;15.70;99.90
33492;DHT22;20010;51.488;7.232;2022-08-21T05:18:09;15.60;99.90
33492;DHT22;20010;51.488;7.232;2022-08-21T05:20:37;15.70;99.90
33492;DHT22;20010;51.488;7.232;2022-08-21T05:23:10;15.60;99.90
33492;DHT22;20010;51.488;7.232;2022-08-21T05:25:40;15.70;99.90
33492;DHT22;20010;51.488;7.232;2022-08-21T05:28:11;15.70;99.90
33492;DHT22;20010;51.488;7.232;2022-08-21T05:30:56;15.70;99.90
33492;DHT22;20010;51.488;7.232;2022-08-21T05:33:28;15.80;99.90
33492;DHT22;20010;51.488;7.232;2022-08-21T05:36:01;15.80;99.90
33492;DHT22;20010;51.488;7.232;2022-08-21T05:38:32;15.80;99.90
33492;DHT22;20010;51.488;7.232;2022-08-21T05:41:00;16.00;99.90
33492;DHT22;20010;51.488;7.232;2022-08-21T05:43:33;16.10;99.90
33492;DHT22;20010;51.488;7.232;2022-08-21T05:46:14;16.10;99.90
33492;DHT22;20010;51.488;7.232;2022-08-21T05:48:45;16.10;99.90
33492;DHT22;20010;51.488;7.232;2022-08-21T05:51:16;16.10;99.90
33492;DHT22;20010;51.488;7.232;2022-08-21T05:53:46;16.10;99.90
33492;DHT22;20010;51.488;7.232;2022-08-21T05:56:17;16.10;99.90
33492;DHT22;20010;51.488;7.232;2022-08-21T05:58:45;16.10;99.90
33492;DHT22;20010;51.488;7.232;2022-08-21T06:01:13;16.10;99.90
33492;DHT22;20010;51.488;7.232;2022-08-21T06:03:41;16.20;99.90
33492;DHT22;20010;51.488;7.232;2022-08-21T06:06:26;16.20;99.90
33492;DHT22;20010;51.488;7.232;2022-08-21T06:08:55;16.20;99.90
33492;DHT22;20010;51.488;7.232;2022-08-21T06:11:25;16.30;99.90
33492;DHT22;20010;51.488;7.232;2022-08-21T06:13:56;16.30;99.90
33492;DHT22;20010;51.488;7.232;2022-08-21T06:16:27;16.40;99.90
33492;DHT22;20010;51.488;7.232;2022-08-21T06:18:59;16.40;99.90
33492;DHT22;20010;51.488;7.232;2022-08-21T06:21:29;16.50;99.90
33492;DHT22;20010;51.488;7.232;2022-08-21T06:24:01;16.50;99.90
33492;DHT22;20010;51.488;7.232;2022-08-21T06:26:33;16.60;99.90
33492;DHT22;20010;51.488;7.232;2022-08-21T06:29:06;16.60;99.90
33492;DHT22;20010;51.488;7.232;2022-08-21T06:31:39;16.60;99.90
33492;DHT22;20010;51.488;7.232;2022-08-21T06:34:14;16.70;99.90
33492;DHT22;20010;51.488;7.232;2022-08-21T06:36:48;16.80;99.90
33492;DHT22;20010;51.488;7.232;2022-08-21T06:39:28;16.90;99.90
33492;DHT22;20010;51.488;7.232;2022-08-21T06:41:59;16.90;99.90
33492;DHT22;20010;51.488;7.232;2022-08-21T06:44:37;17.00;99.90
33492;DHT22;20010;51.488;7.232;2022-08-21T06:47:09;17.00;99.90
33492;DHT22;20010;51.488;7.232;2022-08-21T06:49:43;17.10;99.90
33492;DHT22;20010;51.488;7.232;2022-08-21T06:52:12;17.20;99.90
33492;DHT22;20010;51.488;7.232;2022-08-21T06:54:44;17.20;99.90
33492;DHT22;20010;51.488;7.232;2022-08-21T06:57:12;17.30;99.90
33492;DHT22;20010;51.488;7.232;2022-08-21T06:59:46;17.40;99.90
33492;DHT22;20010;51.488;7.232;2022-08-21T07:02:18;17.50;99.90
33492;DHT22;20010;51.488;7.232;2022-08-21T07:04:45;17.50;99.90
33492;DHT22;20010;51.488;7.232;2022-08-21T07:07:15;17.60;99.90
33492;DHT22;20010;51.488;7.232;2022-08-21T07:09:47;17.70;99.90
33492;DHT22;20010;51.488;7.232;2022-08-21T07:12:17;17.80;99.90
33492;DHT22;20010;51.488;7.232;2022-08-21T07:14:46;17.90;99.90
33492;DHT22;20010;51.488;7.232;2022-08-21T07:17:14;18.00;99.90
33492;DHT22;20010;51.488;7.232;2022-08-21T07:19:41;18.00;99.90
33492;DHT22;20010;51.488;7.232;2022-08-21T07:22:09;18.00;99.90
33492;DHT22;20010;51.488;7.232;2022-08-21T07:24:40;18.00;99.90
33492;DHT22;20010;51.488;7.232;2022-08-21T07:27:08;18.10;99.90
33492;DHT22;20010;51.488;7.232;2022-08-21T07:29:37;18.20;99.90
33492;DHT22;20010;51.488;7.232;2022-08-21T07:32:05;18.20;99.90
33492;DHT22;20010;51.488;7.232;2022-08-21T07:34:33;18.20;99.90
33492;DHT22;20010;51.488;7.232;2022-08-21T07:37:06;18.30;99.90
33492;DHT22;20010;51.488;7.232;2022-08-21T07:39:36;18.30;99.90
33492;DHT22;20010;51.488;7.232;2022-08-21T07:42:05;18.40;99.90
33492;DHT22;20010;51.488;7.232;2022-08-21T07:44:36;18.50;99.90
33492;DHT22;20010;51.488;7.232;2022-08-21T07:47:05;18.50;99.90
33492;DHT22;20010;51.488;7.232;2022-08-21T07:49:36;18.60;99.90
33492;DHT22;20010;51.488;7.232;2022-08-21T07:52:06;18.70;99.90
33492;DHT22;20010;51.488;7.232;2022-08-21T07:54:33;18.70;99.90
33492;DHT22;20010;51.488;7.232;2022-08-21T07:57:01;18.70;99.90
33492;DHT22;20010;51.488;7.232;2022-08-21T07:59:29;18.90;99.90
33492;DHT22;20010;51.488;7.232;2022-08-21T08:01:57;18.90;99.90
33492;DHT22;20010;51.488;7.232;2022-08-21T08:04:27;19.00;99.90
33492;DHT22;20010;51.488;7.232;2022-08-21T08:07:04;19.00;99.90
33492;DHT22;20010;51.488;7.232;2022-08-21T08:09:36;19.00;99.90
33492;DHT22;20010;51.488;7.232;2022-08-21T08:12:12;19.00;99.90
33492;DHT22;20010;51.488;7.232;2022-08-21T08:14:44;19.10;99.90
33492;DHT22;20010;51.488;7.232;2022-08-21T08:17:12;19.10;99.90
33492;DHT22;20010;51.488;7.232;2022-08-21T08:19:47;19.10;99.90
33492;DHT22;20010;51.488;7.232;2022-08-21T08:22:22;19.10;99.90
33492;DHT22;20010;51.488;7.232;2022-08-21T08:24:56;19.20;99.90
33492;DHT22;20010;51.488;7.232;2022-08-21T08:27:27;19.30;99.90
33492;DHT22;20010;51.488;7.232;2022-08-21T08:29:54;19.30;99.90
33492;DHT22;20010;51.488;7.232;2022-08-21T08:32:24;19.30;99.90
33492;DHT22;20010;51.488;7.232;2022-08-21T08:34:53;19.30;99.90
33492;DHT22;20010;51.488;7.232;2022-08-21T08:37:21;19.30;99.90
33492;DHT22;20010;51.488;7.232;2022-08-21T08:39:53;19.40;99.90
33492;DHT22;20010;51.488;7.232;2022-08-21T08:42:31;19.40;99.90
33492;DHT22;20010;51.488;7.232;2022-08-21T08:45:12;19.40;99.90
33492;DHT22;20010;51.488;7.232;2022-08-21T08:47:47;19.50;99.90
33492;DHT22;20010;51.488;7.232;2022-08-21T08:50:22;19.50;99.90
33492;DHT22;20010;51.488;7.232;2022-08-21T08:53:24;19.60;99.90
33492;DHT22;20010;51.488;7.232;2022-08-21T08:55:55;19.70;99.90
33492;DHT22;20010;51.488;7.232;2022-08-21T08:58:34;19.70;99.90
33492;DHT22;20010;51.488;7.232;2022-08-21T09:01:11;19.80;99.90
33492;DHT22;20010;51.488;7.232;2022-08-21T09:03:41;19.90;99.90
33492;DHT22;20010;51.488;7.232;2022-08-21T09:12:08;20.00;99.90
33492;DHT22;20010;51.488;7.232;2022-08-21T09:14:54;20.00;99.90
33492;DHT22;20010;51.488;7.232;2022-08-21T09:20:47;20.20;99.90
33492;DHT22;20010;51.488;7.232;2022-08-21T09:26:18;20.50;99.90
33492;DHT22;20010;51.488;7.232;2022-08-21T09:29:04;20.60;99.90
33492;DHT22;20010;51.488;7.232;2022-08-21T09:31:36;20.80;99.90
33492;DHT22;20010;51.488;7.232;2022-08-21T09:34:10;20.80;99.90
33492;DHT22;20010;51.488;7.232;2022-08-21T09:36:48;20.70;99.90
33492;DHT22;20010;51.488;7.232;2022-08-21T09:39:26;20.80;99.90
33492;DHT22;20010;51.488;7.232;2022-08-21T09:42:04;20.80;99.90
33492;DHT22;20010;51.488;7.232;2022-08-21T09:44:39;20.60;99.90
33492;DHT22;20010;51.488;7.232;2022-08-21T09:47:11;20.60;99.90
33492;DHT22;20010;51.488;7.232;2022-08-21T09:49:43;20.60;99.90
33492;DHT22;20010;51.488;7.232;2022-08-21T09:52:21;20.70;99.90
33492;DHT22;20010;51.488;7.232;2022-08-21T09:54:55;20.80;99.90
33492;DHT22;20010;51.488;7.232;2022-08-21T09:57:30;20.90;99.90
33492;DHT22;20010;51.488;7.232;2022-08-21T10:00:26;21.00;99.90
33492;DHT22;20010;51.488;7.232;2022-08-21T10:03:21;21.00;99.90
33492;DHT22;20010;51.488;7.232;2022-08-21T10:06:04;21.10;99.90
33492;DHT22;20010;51.488;7.232;2022-08-21T10:08:50;21.30;99.90
33492;DHT22;20010;51.488;7.232;2022-08-21T10:11:30;21.40;99.90
33492;DHT22;20010;51.488;7.232;2022-08-21T10:19:50;21.50;99.90
33492;DHT22;20010;51.488;7.232;2022-08-21T10:25:23;21.50;99.90
33492;DHT22;20010;51.488;7.232;2022-08-21T10:31:18;21.70;99.90
33492;DHT22;20010;51.488;7.232;2022-08-21T10:58:21;22.50;99.90
33492;DHT22;20010;51.488;7.232;2022-08-21T11:00:59;22.70;99.90
33492;DHT22;20010;51.488;7.232;2022-08-21T11:03:44;23.00;99.90
33492;DHT22;20010;51.488;7.232;2022-08-21T11:06:31;22.80;99.90
33492;DHT22;20010;51.488;7.232;2022-08-21T11:09:14;23.00;99.90
33492;DHT22;20010;51.488;7.232;2022-08-21T11:11:52;23.10;99.90
33492;DHT22;20010;51.488;7.232;2022-08-21T11:17:40;23.10;99.90
33492;DHT22;20010;51.488;7.232;2022-08-21T11:20:20;23.40;99.90
33492;DHT22;20010;51.488;7.232;2022-08-21T11:23:04;23.40;99.90
33492;DHT22;20010;51.488;7.232;2022-08-21T11:25:44;23.60;99.90
33492;DHT22;20010;51.488;7.232;2022-08-21T11:28:30;23.50;99.90
33492;DHT22;20010;51.488;7.232;2022-08-21T11:31:41;23.50;99.90
33492;DHT22;20010;51.488;7.232;2022-08-21T11:37:23;23.60;99.90
33492;DHT22;20010;51.488;7.232;2022-08-21T11:43:33;24.00;99.90
33492;DHT22;20010;51.488;7.232;2022-08-21T11:54:28;23.70;99.90
33492;DHT22;20010;51.488;7.232;2022-08-21T11:57:12;23.80;99.90
33492;DHT22;20010;51.488;7.232;2022-08-21T11:59:53;23.80;99.90
33492;DHT22;20010;51.488;7.232;2022-08-21T12:02:24;23.90;99.90
33492;DHT22;20010;51.488;7.232;2022-08-21T12:05:40;24.10;99.90
33492;DHT22;20010;51.488;7.232;2022-08-21T12:08:25;24.10;99.90
33492;DHT22;20010;51.488;7.232;2022-08-21T12:11:07;24.10;99.90
33492;DHT22;20010;51.488;7.232;2022-08-21T12:13:51;24.10;99.90
33492;DHT22;20010;51.488;7.232;2022-08-21T12:16:41;23.90;99.90
33492;DHT22;20010;51.488;7.232;2022-08-21T12:19:31;23.70;99.90
33492;DHT22;20010;51.488;7.232;2022-08-21T12:22:13;23.70;99.90
33492;DHT22;20010;51.488;7.232;2022-08-21T12:24:50;23.90;99.90
33492;DHT22;20010;51.488;7.232;2022-08-21T12:27:46;24.00;99.90
33492;DHT22;20010;51.488;7.232;2022-08-21T12:30:44;24.40;99.90
33492;DHT22;20010;51.488;7.232;2022-08-21T12:33:37;24.30;99.90
33492;DHT22;20010;51.488;7.232;2022-08-21T12:36:20;24.40;99.90
33492;DHT22;20010;51.488;7.232;2022-08-21T12:38:58;24.60;99.90
33492;DHT22;20010;51.488;7.232;2022-08-21T12:41:36;24.70;99.60
33492;DHT22;20010;51.488;7.232;2022-08-21T12:44:22;24.80;99.90
33492;DHT22;20010;51.488;7.232;2022-08-21T12:47:03;24.90;99.40
33492;DHT22;20010;51.488;7.232;2022-08-21T12:49:56;25.00;99.70
33492;DHT22;20010;51.488;7.232;2022-08-21T12:52:58;24.80;99.00
33492;DHT22;20010;51.488;7.232;2022-08-21T12:55:32;24.90;99.00
33492;DHT22;20010;51.488;7.232;2022-08-21T12:58:46;24.90;97.20
33492;DHT22;20010;51.488;7.232;2022-08-21T13:01:39;24.90;97.30
33492;DHT22;20010;51.488;7.232;2022-08-21T13:04:23;25.00;98.90
33492;DHT22;20010;51.488;7.232;2022-08-21T13:07:24;25.60;98.70
33492;DHT22;20010;51.488;7.232;2022-08-21T13:10:13;25.90;97.60
33492;DHT22;20010;51.488;7.232;2022-08-21T13:12:54;25.60;96.20
33492;DHT22;20010;51.488;7.232;2022-08-21T13:15:39;25.70;97.30
33492;DHT22;20010;51.488;7.232;2022-08-21T13:18:24;26.00;96.60
33492;DHT22;20010;51.488;7.232;2022-08-21T13:21:12;25.80;96.10
33492;DHT22;20010;51.488;7.232;2022-08-21T13:24:05;25.70;95.90
33492;DHT22;20010;51.488;7.232;2022-08-21T13:26:55;25.60;95.70
33492;DHT22;20010;51.488;7.232;2022-08-21T13:30:27;25.90;95.80
33492;DHT22;20010;51.488;7.232;2022-08-21T13:33:02;26.10;95.30
33492;DHT22;20010;51.488;7.232;2022-08-21T13:38:19;25.50;94.00
33492;DHT22;20010;51.488;7.232;2022-08-21T13:41:00;25.60;94.50
33492;DHT22;20010;51.488;7.232;2022-08-21T13:43:33;26.00;94.00
33492;DHT22;20010;51.488;7.232;2022-08-21T13:46:12;26.20;94.80
33492;DHT22;20010;51.488;7.232;2022-08-21T13:48:49;26.40;93.50
33492;DHT22;20010;51.488;7.232;2022-08-21T13:51:17;26.20;93.90
33492;DHT22;20010;51.488;7.232;2022-08-21T13:53:48;26.00;94.10
33492;DHT22;20010;51.488;7.232;2022-08-21T13:57:02;25.60;94.00
33492;DHT22;20010;51.488;7.232;2022-08-21T13:59:51;25.60;95.60
33492;DHT22;20010;51.488;7.232;2022-08-21T14:02:23;25.60;94.30
33492;DHT22;20010;51.488;7.232;2022-08-21T14:05:00;25.60;94.80
33492;DHT22;20010;51.488;7.232;2022-08-21T14:07:38;26.40;94.90
33492;DHT22;20010;51.488;7.232;2022-08-21T14:10:20;26.30;93.70
33492;DHT22;20010;51.488;7.232;2022-08-21T14:12:54;26.30;93.50
33492;DHT22;20010;51.488;7.232;2022-08-21T14:15:38;26.40;94.90
33492;DHT22;20010;51.488;7.232;2022-08-21T14:18:19;26.60;93.70
33492;DHT22;20010;51.488;7.232;2022-08-21T14:21:12;26.80;92.70
33492;DHT22;20010;51.488;7.232;2022-08-21T14:24:24;26.70;93.00
33492;DHT22;20010;51.488;7.232;2022-08-21T14:26:58;27.10;93.40
33492;DHT22;20010;51.488;7.232;2022-08-21T14:29:56;27.40;92.40
33492;DHT22;20010;51.488;7.232;2022-08-21T14:32:28;27.40;91.40
33492;DHT22;20010;51.488;7.232;2022-08-21T14:35:12;27.00;91.80
33492;DHT22;20010;51.488;7.232;2022-08-21T14:37:43;26.50;91.30
33492;DHT22;20010;51.488;7.232;2022-08-21T14:40:21;26.10;91.60
33492;DHT22;20010;51.488;7.232;2022-08-21T14:43:04;25.90;92.40
33492;DHT22;20010;51.488;7.232;2022-08-21T14:45:33;25.80;92.50
33492;DHT22;20010;51.488;7.232;2022-08-21T14:48:01;25.70;92.10
33492;DHT22;20010;51.488;7.232;2022-08-21T14:50:54;25.50;91.60
33492;DHT22;20010;51.488;7.232;2022-08-21T14:53:27;25.30;90.90
33492;DHT22;20010;51.488;7.232;2022-08-21T14:55:53;25.30;91.80
33492;DHT22;20010;51.488;7.232;2022-08-21T14:58:43;25.20;92.10
33492;DHT22;20010;51.488;7.232;2022-08-21T15:01:13;25.10;91.80
33492;DHT22;20010;51.488;7.232;2022-08-21T15:03:45;25.00;92.10
33492;DHT22;20010;51.488;7.232;2022-08-21T15:06:18;24.70;92.00
33492;DHT22;20010;51.488;7.232;2022-08-21T15:08:49;24.40;91.40
33492;DHT22;20010;51.488;7.232;2022-08-21T15:11:39;24.40;92.70
33492;DHT22;20010;51.488;7.232;2022-08-21T15:14:15;24.40;92.30
33492;DHT22;20010;51.488;7.232;2022-08-21T15:16:47;24.40;91.90
33492;DHT22;20010;51.488;7.232;2022-08-21T15:19:22;24.40;91.80
33492;DHT22;20010;51.488;7.232;2022-08-21T15:21:52;24.50;92.40
33492;DHT22;20010;51.488;7.232;2022-08-21T15:24:21;24.80;92.30
33492;DHT22;20010;51.488;7.232;2022-08-21T15:26:54;25.00;92.70
33492;DHT22;20010;51.488;7.232;2022-08-21T15:29:29;25.10;92.30
33492;DHT22;20010;51.488;7.232;2022-08-21T15:32:20;25.10;92.40
33492;DHT22;20010;51.488;7.232;2022-08-21T15:34:56;25.10;92.80
33492;DHT22;20010;51.488;7.232;2022-08-21T15:37:28;25.20;93.50
33492;DHT22;20010;51.488;7.232;2022-08-21T15:39:56;25.30;93.20
33492;DHT22;20010;51.488;7.232;2022-08-21T15:42:26;25.20;93.30
33492;DHT22;20010;51.488;7.232;2022-08-21T15:44:55;25.10;93.20
33492;DHT22;20010;51.488;7.232;2022-08-21T15:47:34;25.20;94.10
33492;DHT22;20010;51.488;7.232;2022-08-21T15:50:08;25.30;94.00
33492;DHT22;20010;51.488;7.232;2022-08-21T15:52:39;25.40;94.00
33492;DHT22;20010;51.488;7.232;2022-08-21T15:55:08;25.50;93.80
33492;DHT22;20010;51.488;7.232;2022-08-21T15:57:36;25.50;94.20
33492;DHT22;20010;51.488;7.232;2022-08-21T16:00:12;25.40;94.40
33492;DHT22;20010;51.488;7.232;2022-08-21T16:02:47;25.20;94.30
33492;DHT22;20010;51.488;7.232;2022-08-21T16:05:15;25.20;94.30
33492;DHT22;20010;51.488;7.232;2022-08-21T16:07:49;25.30;93.60
33492;DHT22;20010;51.488;7.232;2022-08-21T16:10:23;25.00;93.30
33492;DHT22;20010;51.488;7.232;2022-08-21T16:12:58;24.90;93.70
33492;DHT22;20010;51.488;7.232;2022-08-21T16:15:28;25.00;94.00
33492;DHT22;20010;51.488;7.232;2022-08-21T16:17:58;25.10;93.60
33492;DHT22;20010;51.488;7.232;2022-08-21T16:20:29;24.90;93.20
33492;DHT22;20010;51.488;7.232;2022-08-21T16:22:58;24.80;94.20
33492;DHT22;20010;51.488;7.232;2022-08-21T16:25:29;24.90;94.00
33492;DHT22;20010;51.488;7.232;2022-08-21T16:28:01;25.10;94.40
33492;DHT22;20010;51.488;7.232;2022-08-21T16:30:29;25.30;94.50
33492;DHT22;20010;51.488;7.232;2022-08-21T16:32:58;25.30;94.70
33492;DHT22;20010;51.488;7.232;2022-08-21T16:35:29;25.30;94.80
33492;DHT22;20010;51.488;7.232;2022-08-21T16:37:58;25.20;94.50
33492;DHT22;20010;51.488;7.232;2022-08-21T16:40:26;25.10;94.10
33492;DHT22;20010;51.488;7.232;2022-08-21T16:42:54;25.10;94.60
33492;DHT22;20010;51.488;7.232;2022-08-21T16:45:24;25.30;94.90
33492;DHT22;20010;51.488;7.232;2022-08-21T16:47:59;25.50;94.90
33492;DHT22;20010;51.488;7.232;2022-08-21T16:50:32;25.50;93.60
33492;DHT22;20010;51.488;7.232;2022-08-21T16:53:02;25.40;93.50
33492;DHT22;20010;51.488;7.232;2022-08-21T16:55:38;25.00;93.60
33492;DHT22;20010;51.488;7.232;2022-08-21T16:58:18;25.00;94.40
33492;DHT22;20010;51.488;7.232;2022-08-21T17:01:06;24.70;93.90
33492;DHT22;20010;51.488;7.232;2022-08-21T17:03:44;24.60;94.40
33492;DHT22;20010;51.488;7.232;2022-08-21T17:06:15;24.40;94.50
33492;DHT22;20010;51.488;7.232;2022-08-21T17:08:49;24.40;94.80
33492;DHT22;20010;51.488;7.232;2022-08-21T17:11:38;24.30;94.30
33492;DHT22;20010;51.488;7.232;2022-08-21T17:14:11;24.30;94.50
33492;DHT22;20010;51.488;7.232;2022-08-21T17:16:41;24.30;95.10
33492;DHT22;20010;51.488;7.232;2022-08-21T17:19:12;24.30;95.20
33492;DHT22;20010;51.488;7.232;2022-08-21T17:21:42;24.20;95.50
33492;DHT22;20010;51.488;7.232;2022-08-21T17:24:10;24.10;95.50
33492;DHT22;20010;51.488;7.232;2022-08-21T17:26:53;24.00;94.90
33492;DHT22;20010;51.488;7.232;2022-08-21T17:29:24;23.90;95.00